Time;durP1;ratioP1;P1;durP2;ratioP2;P2;SDS_P1;SDS_P2;PMS_P1;PMS_P2;Temp;Humidity;BMP_temperature;BMP_pressure;BME280_temperature;BME280_humidity;BME280_pressure;Samples;Min_cycle;Max_cycle;Signal;HPM_P1;HPM_P2
2022/05/11 10:54:48;;;;;;;6.47;3.50;;;21.00;99.90;;;;;;5091138;28;20545;-72
2022/05/11 10:57:21;;;;;;;8.85;4.55;;;21.10;99.90;;;;;;5091123;28;20167;-72
2022/05/11 11:00:28;;;;;;;4.90;4.20;;;21.10;99.90;;;;;;5091333;28;20182;-71
2022/05/11 11:03:13;;;;;;;5.70;4.20;;;21.20;99.90;;;;;;5078275;28;20529;-72
2022/05/11 11:07:11;;;;;;;5.50;3.67;;;21.30;99.90;;;;;;5091280;28;20171;-72
2022/05/11 11:08:47;;;;;;;5.95;4.28;;;21.40;99.90;;;;;;5090907;28;20548;-71
2022/05/11 11:11:30;;;;;;;5.55;4.10;;;21.40;99.90;;;;;;5090847;28;20163;-72
2022/05/11 11:14:00;;;;;;;6.22;3.97;;;21.50;99.90;;;;;;5090655;28;20198;-71
2022/05/11 11:16:31;;;;;;;8.65;4.72;;;21.50;99.90;;;;;;5090825;28;20194;-72
2022/05/11 11:18:57;;;;;;;5.03;4.60;;;21.50;99.90;;;;;;5089437;28;20167;-71
2022/05/11 11:21:23;;;;;;;7.15;5.05;;;21.50;99.90;;;;;;5090721;28;20167;-71
2022/05/11 11:24:11;;;;;;;5.55;5.13;;;21.60;99.90;;;;;;5089545;28;20531;-72
2022/05/11 11:26:53;;;;;;;8.18;4.70;;;21.50;99.90;;;;;;5090588;28;20178;-72
2022/05/11 11:29:29;;;;;;;5.97;4.35;;;21.60;99.90;;;;;;5090558;28;20546;-72
2022/05/11 11:32:00;;;;;;;5.35;4.78;;;21.70;99.90;;;;;;5090323;28;20236;-72
2022/05/11 11:34:38;;;;;;;4.47;4.07;;;21.80;99.90;;;;;;5090419;28;20172;-72
2022/05/11 11:37:31;;;;;;;3.85;3.55;;;21.90;99.90;;;;;;5090406;28;20190;-72
2022/05/11 11:39:59;;;;;;;5.82;3.80;;;22.00;99.90;;;;;;5090437;28;20260;-72
2022/05/11 11:42:39;;;;;;;4.80;4.20;;;22.00;99.90;;;;;;5090417;28;20225;-72
2022/05/11 11:45:26;;;;;;;4.55;4.15;;;22.10;99.90;;;;;;5089060;28;20649;-72
2022/05/11 11:48:17;;;;;;;6.60;4.68;;;22.10;99.90;;;;;;5090169;28;20189;-72
2022/05/11 11:50:53;;;;;;;6.22;4.13;;;22.10;99.90;;;;;;5090161;28;20182;-72
2022/05/11 11:53:38;;;;;;;5.05;4.65;;;22.10;99.90;;;;;;5089859;28;20268;-72
2022/05/11 11:56:23;;;;;;;4.82;4.43;;;22.20;99.90;;;;;;5089016;28;20228;-72
2022/05/11 11:59:00;;;;;;;6.13;4.22;;;22.20;99.90;;;;;;5089990;28;20710;-72
2022/05/11 12:01:27;;;;;;;8.02;4.47;;;22.20;99.90;;;;;;5089625;28;20213;-73
2022/05/11 12:03:59;;;;;;;8.40;4.28;;;22.30;99.90;;;;;;5084382;28;20172;-72
2022/05/11 12:15:03;;;;;;;6.05;4.35;;;22.60;99.90;;;;;;5076215;28;20210;-72
2022/05/11 12:17:38;;;;;;;4.50;4.07;;;22.60;99.90;;;;;;5075911;28;20164;-72
2022/05/11 12:20:13;;;;;;;6.40;3.75;;;22.70;99.90;;;;;;5075737;28;20578;-72
2022/05/11 12:22:50;;;;;;;4.25;3.63;;;22.90;99.90;;;;;;5074534;28;20794;-72
2022/05/11 12:25:49;;;;;;;4.20;3.90;;;22.90;99.90;;;;;;5075717;28;20172;-72
2022/05/11 12:28:29;;;;;;;4.72;4.32;;;22.90;99.90;;;;;;5075554;28;20207;-72
2022/05/11 12:30:55;;;;;;;3.65;3.28;;;23.00;99.90;;;;;;5075648;28;20662;-72
2022/05/11 12:33:28;;;;;;;3.47;3.28;;;23.00;99.90;;;;;;5075373;28;20211;-72
2022/05/11 12:35:55;;;;;;;12.77;4.00;;;23.10;99.90;;;;;;5075529;28;20567;-72
2022/05/11 12:38:26;;;;;;;3.50;3.00;;;23.30;99.90;;;;;;5075513;28;20164;-72
2022/05/11 12:40:53;;;;;;;10.23;3.92;;;23.30;99.90;;;;;;5075440;28;20581;-72
2022/05/11 12:43:28;;;;;;;10.55;3.70;;;23.40;99.90;;;;;;5075416;28;20164;-72
2022/05/11 12:45:57;;;;;;;4.22;3.72;;;23.50;99.90;;;;;;5075312;28;20246;-72
2022/05/11 12:48:31;;;;;;;4.72;4.18;;;23.60;99.90;;;;;;5075285;28;20168;-72
2022/05/11 12:51:00;;;;;;;4.72;4.22;;;23.60;99.90;;;;;;5075222;28;20178;-72
2022/05/11 12:53:30;;;;;;;4.68;4.10;;;23.70;99.90;;;;;;5074993;28;20221;-72
2022/05/11 12:56:07;;;;;;;3.80;3.58;;;23.80;99.90;;;;;;5075086;28;20170;-72
2022/05/11 12:58:35;;;;;;;7.13;3.88;;;23.90;99.90;;;;;;5075122;28;20168;-72
2022/05/11 13:01:04;;;;;;;4.05;3.45;;;24.00;99.90;;;;;;5074978;28;20164;-72
2022/05/11 13:03:37;;;;;;;5.70;4.25;;;24.10;99.90;;;;;;5074961;28;20214;-72
2022/05/11 13:06:31;;;;;;;5.82;3.78;;;24.30;99.90;;;;;;5073910;28;20572;-72
2022/05/11 13:09:30;;;;;;;7.15;3.85;;;24.30;99.90;;;;;;5074607;28;20198;-73
2022/05/11 13:11:56;;;;;;;3.90;3.58;;;24.40;99.90;;;;;;5073422;28;20168;-72
2022/05/11 13:14:32;;;;;;;8.13;3.75;;;24.70;99.90;;;;;;5074696;28;20175;-72
2022/05/11 13:17:01;;;;;;;4.40;4.00;;;24.80;99.90;;;;;;5074127;28;20258;-72
2022/05/11 13:19:29;;;;;;;4.60;4.15;;;24.80;99.90;;;;;;5074962;28;20219;-72
2022/05/11 13:21:58;;;;;;;4.10;3.85;;;24.60;99.90;;;;;;5074914;28;20164;-72
2022/05/11 13:24:48;;;;;;;3.55;3.25;;;24.60;99.90;;;;;;5074884;28;20160;-72
2022/05/11 13:27:48;;;;;;;8.35;4.32;;;24.70;99.90;;;;;;5074731;28;20160;-72
2022/05/11 13:30:20;;;;;;;4.05;3.75;;;24.80;99.90;;;;;;5074839;28;20252;-72
2022/05/11 13:33:02;;;;;;;9.93;3.80;;;25.00;99.90;;;;;;5073375;28;20676;-73
2022/05/11 13:35:39;;;;;;;6.63;3.25;;;25.20;99.90;;;;;;5073483;28;20171;-72
2022/05/11 13:38:11;;;;;;;4.25;3.65;;;25.40;99.90;;;;;;5074803;28;20309;-72
2022/05/11 13:40:48;;;;;;;7.55;3.78;;;25.60;99.90;;;;;;5074557;28;20175;-73
2022/05/11 13:43:25;;;;;;;5.50;3.58;;;25.60;99.90;;;;;;5074426;28;20250;-72
2022/05/11 13:46:03;;;;;;;9.25;4.05;;;25.40;99.90;;;;;;5074528;28;20167;-72
2022/05/11 13:48:36;;;;;;;9.88;3.70;;;25.50;99.90;;;;;;5074445;28;20179;-72
2022/05/11 13:51:20;;;;;;;4.25;3.90;;;25.70;99.90;;;;;;5074623;28;20182;-73
2022/05/11 13:53:48;;;;;;;4.28;3.97;;;25.90;99.90;;;;;;5073982;28;20700;-72
2022/05/11 13:56:14;;;;;;;4.70;3.58;;;25.80;99.90;;;;;;5074239;28;20652;-72
2022/05/11 13:58:42;;;;;;;6.15;4.07;;;25.60;99.90;;;;;;5074267;28;20164;-72
2022/05/11 14:01:16;;;;;;;4.35;3.60;;;25.50;99.90;;;;;;5073094;28;20168;-72
2022/05/11 14:03:53;;;;;;;6.85;3.10;;;25.60;99.90;;;;;;5074079;28;20207;-72
2022/05/11 14:06:22;;;;;;;5.00;3.47;;;25.90;99.90;;;;;;5074248;28;20171;-71
2022/05/11 14:08:48;;;;;;;10.40;3.60;;;26.10;99.90;;;;;;5074099;28;20176;-71
2022/05/11 14:11:16;;;;;;;4.78;3.33;;;26.40;99.90;;;;;;5073937;28;20525;-71
2022/05/11 14:13:43;;;;;;;11.20;3.28;;;26.60;99.90;;;;;;5073717;28;20672;-71
2022/05/11 14:16:10;;;;;;;11.63;3.53;;;26.80;99.90;;;;;;5072671;28;20207;-71
2022/05/11 14:18:45;;;;;;;3.38;3.03;;;26.50;99.90;;;;;;5073806;28;20255;-71
2022/05/11 14:21:11;;;;;;;12.40;3.47;;;26.00;99.90;;;;;;5072870;28;20245;-71
2022/05/11 14:23:36;;;;;;;8.43;3.55;;;25.70;99.90;;;;;;5073894;28;20163;-71
2022/05/11 14:26:03;;;;;;;5.35;3.35;;;25.60;99.90;;;;;;5073829;28;20225;-72
2022/05/11 14:28:29;;;;;;;7.63;4.30;;;25.90;99.90;;;;;;5073630;28;20199;-71
2022/05/11 14:30:55;;;;;;;6.93;3.10;;;26.00;99.90;;;;;;5073660;28;20164;-71
2022/05/11 14:33:22;;;;;;;8.85;2.70;;;26.10;99.90;;;;;;5073697;28;20253;-71
2022/05/11 14:35:48;;;;;;;7.47;2.58;;;26.40;99.90;;;;;;5073654;28;20187;-71
2022/05/11 14:38:14;;;;;;;7.18;2.92;;;26.70;99.90;;;;;;5073783;28;20188;-72
2022/05/11 14:40:40;;;;;;;7.38;3.05;;;26.90;99.90;;;;;;5073615;28;20160;-71
2022/05/11 14:43:06;;;;;;;4.45;2.38;;;27.20;99.90;;;;;;5073787;28;20225;-71
2022/05/11 14:45:35;;;;;;;2.95;2.75;;;27.10;99.90;;;;;;5073596;28;20254;-74
2022/05/11 14:48:04;;;;;;;15.93;2.97;;;26.90;99.90;;;;;;5073517;28;20637;-74
2022/05/11 14:50:30;;;;;;;10.48;2.83;;;26.80;99.90;;;;;;5072467;28;20522;-75
2022/05/11 14:52:59;;;;;;;4.00;2.92;;;26.60;99.90;;;;;;5073444;28;20215;-75
2022/05/11 14:55:28;;;;;;;3.35;2.90;;;26.40;99.90;;;;;;5073625;28;20245;-74
2022/05/11 15:03:25;;;;;;;6.53;2.67;;;26.70;99.90;;;;;;5073707;28;20222;-75
2022/05/11 15:05:52;;;;;;;7.22;2.67;;;27.30;99.90;;;;;;5073245;28;20191;-75
2022/05/11 15:08:18;;;;;;;2.88;2.67;;;27.60;99.90;;;;;;5071879;28;20179;-75
2022/05/11 15:10:44;;;;;;;4.80;2.83;;;27.40;99.90;;;;;;5073187;28;20176;-75
2022/05/11 15:15:54;;;;;;;4.35;2.40;;;27.50;99.90;;;;;;5073334;28;20693;-75
2022/05/11 15:18:20;;;;;;;2.75;2.53;;;27.30;99.90;;;;;;5073260;28;20168;-75
2022/05/11 15:20:47;;;;;;;11.07;3.38;;;27.00;99.90;;;;;;5072874;28;20192;-75
2022/05/11 15:23:14;;;;;;;2.58;2.10;;;27.00;99.90;;;;;;5072736;28;20172;-75
2022/05/11 15:25:41;;;;;;;3.45;2.30;;;27.30;99.90;;;;;;5072757;28;20656;-75
2022/05/11 15:28:07;;;;;;;4.53;2.50;;;27.60;99.90;;;;;;5072714;28;20246;-75
2022/05/11 15:30:34;;;;;;;2.85;2.40;;;27.50;99.90;;;;;;5071499;28;20610;-75
2022/05/11 15:33:00;;;;;;;2.58;2.35;;;27.30;99.90;;;;;;5072758;28;20202;-75
2022/05/11 15:35:28;;;;;;;3.60;2.22;;;26.90;99.90;;;;;;5072744;28;20164;-75
2022/05/11 15:37:54;;;;;;;2.55;1.95;;;26.70;99.90;;;;;;5072784;28;20168;-75
2022/05/11 15:40:25;;;;;;;5.85;2.50;;;26.50;99.90;;;;;;5075333;28;20168;-75
2022/05/11 15:42:54;;;;;;;4.72;2.30;;;26.40;99.90;;;;;;5076539;28;20168;-75
2022/05/11 15:45:21;;;;;;;4.60;2.15;;;26.30;99.90;;;;;;5076703;28;20226;-75
2022/05/11 15:47:48;;;;;;;5.40;2.40;;;26.30;99.90;;;;;;5075659;28;20233;-75
2022/05/11 15:50:14;;;;;;;4.75;2.10;;;26.10;99.90;;;;;;5076676;28;20698;-74
2022/05/11 15:52:45;;;;;;;6.28;2.42;;;25.90;99.90;;;;;;5076346;28;20223;-75
2022/05/11 15:55:11;;;;;;;5.95;2.15;;;25.80;99.90;;;;;;5076697;28;20162;-75
2022/05/11 15:57:37;;;;;;;4.30;2.03;;;26.40;99.90;;;;;;5076801;28;20246;-75
2022/05/11 16:00:05;;;;;;;14.70;2.13;;;26.60;99.90;;;;;;5076668;28;20574;-76
2022/05/11 16:02:31;;;;;;;4.10;1.85;;;26.50;99.90;;;;;;5076594;28;20194;-76
2022/05/11 16:04:57;;;;;;;2.65;1.92;;;26.40;99.90;;;;;;5076461;28;20176;-76
2022/05/11 16:07:23;;;;;;;6.95;2.08;;;26.20;99.90;;;;;;5075274;28;20673;-75
2022/05/11 16:09:48;;;;;;;5.72;2.15;;;26.20;99.90;;;;;;5076416;28;20172;-75
2022/05/11 16:12:18;;;;;;;6.65;2.08;;;26.40;99.90;;;;;;5076130;28;20248;-76
2022/05/11 16:14:44;;;;;;;3.13;1.92;;;26.50;99.90;;;;;;5075015;28;20217;-75
2022/05/11 16:19:56;;;;;;;5.78;2.10;;;26.60;99.90;;;;;;5076263;28;20186;-75
2022/05/11 16:22:24;;;;;;;5.05;2.47;;;26.70;99.90;;;;;;5076315;28;20168;-75
2022/05/11 16:24:50;;;;;;;14.30;2.20;;;26.80;99.90;;;;;;5074949;28;20184;-75
2022/05/11 16:27:17;;;;;;;5.60;1.83;;;26.40;99.90;;;;;;5076156;28;20176;-75
2022/05/11 16:29:43;;;;;;;9.90;2.33;;;25.90;99.90;;;;;;5075864;28;20164;-75
2022/05/11 16:32:11;;;;;;;5.18;2.28;;;25.50;99.90;;;;;;5076046;28;20172;-75
2022/05/11 16:34:46;;;;;;;14.38;2.30;;;25.50;99.90;;;;;;5076191;28;20206;-75
2022/05/11 16:37:13;;;;;;;9.07;1.90;;;25.90;99.90;;;;;;5075991;28;20689;-76
2022/05/11 16:39:40;;;;;;;8.23;2.38;;;25.90;99.90;;;;;;5075704;28;20172;-75
2022/05/11 16:42:06;;;;;;;3.38;1.60;;;26.10;99.90;;;;;;5076102;28;20190;-74
2022/05/11 16:44:34;;;;;;;10.95;2.03;;;26.30;99.90;;;;;;5075753;28;20168;-77
2022/05/11 16:47:06;;;;;;;2.30;1.80;;;26.20;99.90;;;;;;5075760;28;20251;-76
2022/05/11 16:49:32;;;;;;;6.00;1.45;;;26.10;99.90;;;;;;5075774;28;20217;-76
2022/05/11 16:51:58;;;;;;;5.15;1.50;;;26.10;99.90;;;;;;5075081;28;20180;-76
2022/05/11 16:54:24;;;;;;;2.60;1.67;;;26.00;99.90;;;;;;5075699;28;20168;-76
2022/05/11 16:56:50;;;;;;;1.80;1.70;;;26.00;99.90;;;;;;5075472;28;20691;-76
2022/05/11 16:59:16;;;;;;;5.22;1.70;;;26.00;99.90;;;;;;5075407;28;20226;-76
2022/05/11 17:01:43;;;;;;;1.58;1.35;;;26.00;99.90;;;;;;5075351;28;20221;-76
2022/05/11 17:04:08;;;;;;;6.93;1.80;;;26.10;99.90;;;;;;5075315;28;20729;-76
2022/05/11 17:06:34;;;;;;;7.93;2.13;;;26.10;99.90;;;;;;5074321;28;20172;-76
2022/05/11 17:09:00;;;;;;;2.67;1.45;;;26.00;99.90;;;;;;5075240;28;20168;-76
2022/05/11 17:11:26;;;;;;;1.73;1.63;;;25.90;99.90;;;;;;5075307;28;20636;-76
2022/05/11 17:13:52;;;;;;;8.75;1.80;;;25.90;99.90;;;;;;5075085;28;20206;-76
2022/05/11 17:16:18;;;;;;;2.38;1.50;;;25.80;99.90;;;;;;5075170;28;20160;-76
2022/05/11 17:18:44;;;;;;;8.07;1.70;;;25.90;99.90;;;;;;5073974;28;20163;-76
2022/05/11 17:21:10;;;;;;;6.50;1.85;;;25.80;99.90;;;;;;5075088;28;20514;-75
2022/05/11 17:23:36;;;;;;;2.00;1.70;;;25.70;99.90;;;;;;5075036;28;20164;-76
2022/05/11 17:26:03;;;;;;;8.88;1.65;;;25.50;99.90;;;;;;5074921;28;20502;-76
2022/05/11 17:28:29;;;;;;;3.22;1.50;;;25.30;99.90;;;;;;5074886;28;20164;-76
2022/05/11 17:30:57;;;;;;;4.30;2.58;;;25.00;99.90;;;;;;5074745;28;20171;-75
2022/05/11 17:33:22;;;;;;;1.70;1.60;;;24.60;99.90;;;;;;5074616;28;20687;-76
2022/05/11 17:35:48;;;;;;;3.15;1.58;;;24.20;99.90;;;;;;5074741;28;20171;-75
2022/05/11 17:38:16;;;;;;;3.22;1.85;;;24.10;99.90;;;;;;5074806;28;20221;-75
2022/05/11 17:40:44;;;;;;;1.77;1.63;;;24.10;99.90;;;;;;5074654;28;20164;-75
2022/05/11 17:43:12;;;;;;;2.35;2.10;;;24.20;99.90;;;;;;5074356;28;20164;-76
2022/05/11 17:45:38;;;;;;;4.22;2.00;;;24.30;99.90;;;;;;5074399;28;20171;-76
2022/05/11 17:48:04;;;;;;;3.53;1.58;;;24.50;99.90;;;;;;5074516;28;20629;-76
2022/05/11 17:50:30;;;;;;;3.38;2.00;;;24.80;99.90;;;;;;5074457;28;20660;-76
2022/05/11 17:52:57;;;;;;;4.32;2.03;;;24.90;99.90;;;;;;5073777;28;20263;-76
2022/05/11 17:55:24;;;;;;;3.28;1.45;;;25.10;99.90;;;;;;5073873;28;20609;-76
2022/05/11 17:57:51;;;;;;;1.58;1.48;;;25.30;99.90;;;;;;5073708;28;20175;-76
2022/05/11 18:00:19;;;;;;;3.85;1.35;;;25.20;99.90;;;;;;5073859;28;20643;-76
2022/05/11 18:02:45;;;;;;;4.68;1.85;;;25.20;99.90;;;;;;5071901;28;20197;-76
2022/05/11 18:05:11;;;;;;;5.65;2.10;;;25.10;99.90;;;;;;5072396;28;20709;-76
2022/05/11 18:07:37;;;;;;;1.85;1.75;;;24.90;99.90;;;;;;5073438;28;20258;-75
2022/05/11 18:10:05;;;;;;;4.38;1.98;;;24.60;99.90;;;;;;5073510;28;20180;-76
2022/05/11 18:12:30;;;;;;;7.32;1.55;;;24.20;99.90;;;;;;5073546;28;20711;-76
2022/05/11 18:14:56;;;;;;;2.70;2.50;;;24.20;99.90;;;;;;5073410;28;20176;-75
2022/05/11 18:17:22;;;;;;;7.43;4.18;;;24.10;99.90;;;;;;5073491;28;20678;-75
2022/05/11 18:19:47;;;;;;;4.20;2.45;;;23.90;99.90;;;;;;5073417;28;20171;-76
2022/05/11 18:22:14;;;;;;;5.63;3.60;;;23.70;99.90;;;;;;5073285;28;20203;-75
2022/05/11 18:24:40;;;;;;;2.25;2.13;;;23.40;99.90;;;;;;5073367;28;20633;-76
2022/05/11 18:27:05;;;;;;;5.05;1.65;;;23.20;99.90;;;;;;5073353;28;20179;-76
2022/05/11 18:29:31;;;;;;;3.38;1.88;;;22.90;99.90;;;;;;5073313;28;20601;-76
2022/05/11 18:31:57;;;;;;;3.42;1.55;;;22.90;99.90;;;;;;5073277;28;20187;-76
2022/05/11 18:34:23;;;;;;;2.20;1.50;;;22.80;99.90;;;;;;5071903;28;20248;-76
2022/05/11 18:36:48;;;;;;;3.45;1.63;;;22.60;99.90;;;;;;5071810;28;20176;-75
2022/05/11 18:39:14;;;;;;;3.35;1.85;;;22.50;99.90;;;;;;5073133;28;20171;-75
2022/05/11 18:41:40;;;;;;;2.63;1.60;;;22.40;99.90;;;;;;5073146;28;20160;-76
2022/05/11 18:44:07;;;;;;;2.95;1.75;;;22.30;99.90;;;;;;5073012;28;20252;-75
2022/05/11 18:46:33;;;;;;;4.68;1.67;;;22.10;99.90;;;;;;5073242;28;20549;-75
2022/05/11 18:48:59;;;;;;;1.73;1.63;;;22.00;99.90;;;;;;5071849;28;20263;-75
2022/05/11 18:51:25;;;;;;;3.10;1.70;;;21.90;99.90;;;;;;5073112;28;20275;-75
2022/05/11 18:53:52;;;;;;;3.90;1.75;;;21.90;99.90;;;;;;5072906;28;20238;-75
